Time;durP1;ratioP1;P1;durP2;ratioP2;P2;SDS_P1;SDS_P2;PMS_P1;PMS_P2;Temp;Humidity;BMP_temperature;BMP_pressure;BME280_temperature;BME280_humidity;BME280_pressure;Samples;Min_cycle;Max_cycle;Signal;HPM_P1;HPM_P2
2023/11/30 00:01:53;;;;;;;11.07;8.15;;;;;;;1.54;54.75;99897.91;4986375;28;20046;-73
2023/11/30 00:04:21;;;;;;;13.07;8.60;;;;;;;1.54;54.82;99902.44;4967559;28;20046;-73
2023/11/30 00:06:49;;;;;;;12.82;8.45;;;;;;;1.54;55.08;99900.63;4987037;28;20047;-74
2023/11/30 00:09:17;;;;;;;10.05;8.02;;;;;;;1.54;54.77;99892.53;4969730;28;20185;-73
2023/11/30 00:11:45;;;;;;;11.30;8.25;;;;;;;1.53;54.81;99893.50;4953783;28;20046;-75
2023/11/30 00:14:14;;;;;;;12.77;8.25;;;;;;;1.54;54.83;99894.34;4987571;28;20042;-74
2023/11/30 00:16:43;;;;;;;10.52;7.85;;;;;;;1.53;54.85;99895.31;4990486;28;20056;-74
2023/11/30 00:19:11;;;;;;;10.38;8.65;;;;;;;1.53;54.98;99892.63;4962557;28;20046;-75
2023/11/30 00:21:39;;;;;;;10.88;8.07;;;;;;;1.52;54.58;99877.41;4966651;28;20574;-75
2023/11/30 00:24:07;;;;;;;12.45;8.98;;;;;;;1.52;54.73;99886.38;4989940;28;20483;-75
2023/11/30 00:26:35;;;;;;;13.70;8.80;;;;;;;1.51;54.76;99884.63;4981838;28;20109;-75
2023/11/30 00:29:03;;;;;;;11.52;8.20;;;;;;;1.51;54.90;99875.72;4970609;28;20781;-74
2023/11/30 00:31:33;;;;;;;12.20;8.73;;;;;;;1.50;55.00;99877.53;4971336;28;20042;-75
2023/11/30 00:34:01;;;;;;;12.00;8.00;;;;;;;1.49;54.82;99881.19;4991343;28;20065;-74
2023/11/30 00:36:29;;;;;;;11.32;8.20;;;;;;;1.48;54.93;99863.28;4967571;28;20043;-74
2023/11/30 00:38:57;;;;;;;12.15;8.35;;;;;;;1.47;54.78;99865.09;4978133;28;20129;-75
2023/11/30 00:41:25;;;;;;;12.73;8.73;;;;;;;1.46;54.78;99863.38;4991225;28;20459;-73
2023/11/30 00:43:53;;;;;;;11.10;8.30;;;;;;;1.46;54.71;99865.19;4971727;28;20061;-73
2023/11/30 00:46:20;;;;;;;11.50;8.30;;;;;;;1.43;54.79;99858.16;4996250;28;20045;-75
2023/11/30 00:48:50;;;;;;;11.82;8.13;;;;;;;1.45;54.78;99855.38;4994906;28;20101;-74
2023/11/30 00:51:18;;;;;;;10.88;7.80;;;;;;;1.41;54.74;99867.34;4978311;28;20545;-75
2023/11/30 00:53:46;;;;;;;12.63;8.32;;;;;;;1.40;54.74;99863.78;4994925;28;20097;-75
2023/11/30 00:56:14;;;;;;;12.20;8.18;;;;;;;1.39;54.88;99850.41;4980538;28;20054;-74
2023/11/30 00:58:42;;;;;;;11.70;7.57;;;;;;;1.39;54.96;99855.78;4969338;28;20137;-74
2023/11/30 01:01:10;;;;;;;11.63;8.15;;;;;;;1.39;55.07;99861.19;4977851;28;20133;-74
2023/11/30 01:03:39;;;;;;;11.25;7.90;;;;;;;1.39;55.02;99858.50;4978762;28;20153;-75
2023/11/30 01:06:09;;;;;;;11.13;7.95;;;;;;;1.41;55.19;99870.91;4984385;28;20070;-75
2023/11/30 01:08:37;;;;;;;10.80;7.35;;;;;;;1.41;55.14;99867.34;4993814;28;20066;-74
2023/11/30 01:11:06;;;;;;;11.23;7.70;;;;;;;1.42;55.12;99861.00;4978762;28;20476;-74
2023/11/30 01:13:34;;;;;;;12.13;6.90;;;;;;;1.45;55.08;99852.69;4995511;28;20050;-74
2023/11/30 01:16:02;;;;;;;10.80;7.75;;;;;;;1.46;54.94;99851.72;4994602;28;20188;-74
2023/11/30 01:18:30;;;;;;;10.68;8.10;;;;;;;1.47;55.17;99851.63;4970406;28;20045;-74
2023/11/30 01:20:58;;;;;;;10.43;7.35;;;;;;;1.48;55.21;99847.97;4975109;28;20567;-73
2023/11/30 01:23:27;;;;;;;11.65;7.82;;;;;;;1.49;55.21;99847.00;4985194;28;20100;-74
2023/11/30 01:25:55;;;;;;;13.88;8.07;;;;;;;1.49;55.05;99847.00;4974538;28;20080;-74
2023/11/30 01:28:24;;;;;;;11.32;7.47;;;;;;;1.51;55.19;99849.56;4978422;28;20125;-74
2023/11/30 01:30:52;;;;;;;11.40;7.75;;;;;;;1.52;55.06;99853.13;4973492;28;20049;-74
2023/11/30 01:33:21;;;;;;;11.43;7.72;;;;;;;1.52;55.29;99837.81;4978222;28;20049;-74
2023/11/30 01:35:49;;;;;;;11.70;7.88;;;;;;;1.52;55.02;99836.97;4984148;28;20050;-74
2023/11/30 01:38:17;;;;;;;12.60;8.52;;;;;;;1.51;55.00;99844.19;4995450;28;20418;-74
2023/11/30 01:40:47;;;;;;;11.10;8.02;;;;;;;1.53;54.90;99844.09;4986304;28;20042;-74
2023/11/30 01:43:18;;;;;;;10.27;7.95;;;;;;;1.52;54.96;99842.34;4991024;28;20043;-73
2023/11/30 01:45:46;;;;;;;11.90;7.90;;;;;;;1.51;54.88;99837.97;4959298;28;20054;-74
2023/11/30 01:48:15;;;;;;;11.70;8.30;;;;;;;1.49;54.96;99820.03;4979377;28;20291;-75
2023/11/30 01:50:43;;;;;;;11.43;7.47;;;;;;;1.50;54.84;99826.31;4992032;28;20046;-74
2023/11/30 01:53:11;;;;;;;11.20;8.13;;;;;;;1.48;54.86;99823.69;4983164;28;20054;-74
2023/11/30 01:55:41;;;;;;;11.55;7.82;;;;;;;1.49;54.70;99821.88;4989967;28;20438;-74
2023/11/30 01:58:12;;;;;;;11.10;7.93;;;;;;;1.47;54.76;99808.50;4973925;28;20082;-73
2023/11/30 02:00:40;;;;;;;10.95;7.80;;;;;;;1.46;54.83;99808.59;4968197;28;20070;-73
2023/11/30 02:03:08;;;;;;;13.25;8.27;;;;;;;1.45;54.86;99805.03;4974328;28;20134;-73
2023/11/30 02:05:36;;;;;;;13.63;8.27;;;;;;;1.46;54.93;99813.97;4972979;28;20045;-73
2023/11/30 02:08:05;;;;;;;12.27;8.35;;;;;;;1.44;54.65;99816.78;4963276;28;20463;-74
2023/11/30 02:10:33;;;;;;;10.63;7.93;;;;;;;1.42;54.75;99810.59;4988666;28;20456;-74
2023/11/30 02:13:01;;;;;;;11.80;8.25;;;;;;;1.43;54.82;99806.94;4979449;28;20117;-74
2023/11/30 02:15:30;;;;;;;11.00;8.07;;;;;;;1.44;54.78;99805.13;4975990;28;20042;-74
2023/11/30 02:17:58;;;;;;;11.88;7.95;;;;;;;1.41;54.74;99802.66;4983386;28;20066;-73
2023/11/30 02:20:26;;;;;;;11.38;8.52;;;;;;;1.41;54.93;99799.94;4973769;28;20077;-73
2023/11/30 02:22:55;;;;;;;11.82;8.20;;;;;;;1.41;54.88;99805.34;4971900;28;20125;-75
2023/11/30 02:25:23;;;;;;;12.40;8.10;;;;;;;1.41;54.95;99797.25;4977390;28;20504;-74
2023/11/30 02:27:51;;;;;;;13.35;8.73;;;;;;;1.40;54.93;99800.91;4974340;28;20550;-74
2023/11/30 02:30:19;;;;;;;11.25;8.07;;;;;;;1.40;54.89;99801.78;4967472;28;20133;-74
2023/11/30 02:32:48;;;;;;;12.88;8.45;;;;;;;1.40;54.71;99790.13;4970808;28;20046;-74
2023/11/30 02:35:16;;;;;;;12.48;8.75;;;;;;;1.40;55.06;99788.31;4959611;28;20054;-74
2023/11/30 02:37:44;;;;;;;13.13;8.80;;;;;;;1.39;54.96;99783.00;4988079;28;20058;-75
2023/11/30 02:40:14;;;;;;;12.90;8.45;;;;;;;1.40;54.93;99795.53;4989384;28;20105;-74
2023/11/30 02:42:42;;;;;;;12.57;8.25;;;;;;;1.40;55.07;99796.38;4982144;28;20120;-73
2023/11/30 02:45:11;;;;;;;11.63;8.48;;;;;;;1.40;55.14;99793.69;4971216;28;20047;-74
2023/11/30 02:47:39;;;;;;;14.18;9.18;;;;;;;1.39;54.93;99794.66;4989615;28;20524;-73
2023/11/30 02:50:09;;;;;;;13.18;9.10;;;;;;;1.40;55.01;99782.03;4967650;28;20444;-74
2023/11/30 02:52:36;;;;;;;12.52;8.57;;;;;;;1.40;55.10;99769.44;4971669;28;20586;-73
2023/11/30 02:55:06;;;;;;;13.88;9.10;;;;;;;1.40;55.22;99765.88;4971925;28;20134;-74
2023/11/30 02:57:36;;;;;;;13.27;8.55;;;;;;;1.40;55.23;99780.22;4969941;28;20042;-73
2023/11/30 03:00:05;;;;;;;13.60;8.75;;;;;;;1.40;55.02;99779.34;4972996;28;20534;-73
2023/11/30 03:02:33;;;;;;;13.02;8.48;;;;;;;1.40;54.94;99780.22;4980811;28;20053;-74
2023/11/30 03:05:01;;;;;;;13.77;8.85;;;;;;;1.40;55.20;99782.91;4970778;28;20043;-73
2023/11/30 03:07:29;;;;;;;12.90;8.63;;;;;;;1.42;55.18;99783.66;4972691;28;20491;-73
2023/11/30 03:09:57;;;;;;;14.02;9.05;;;;;;;1.41;55.29;99778.38;4957947;28;20504;-73
2023/11/30 03:12:25;;;;;;;15.10;9.13;;;;;;;1.42;55.25;99777.41;4995558;28;20559;-74
2023/11/30 03:14:54;;;;;;;13.88;9.27;;;;;;;1.44;55.06;99770.06;4957222;28;20044;-74
2023/11/30 03:17:22;;;;;;;15.10;9.93;;;;;;;1.43;55.23;99771.03;4970061;28;20054;-74
2023/11/30 03:19:50;;;;;;;13.77;9.32;;;;;;;1.45;55.29;99774.50;4968350;28;20111;-74
2023/11/30 03:22:18;;;;;;;13.93;9.20;;;;;;;1.45;55.30;99769.09;4979465;28;20043;-74
2023/11/30 03:24:45;;;;;;;15.13;9.27;;;;;;;1.45;55.25;99774.50;4987169;28;20078;-74
2023/11/30 03:27:13;;;;;;;15.80;9.43;;;;;;;1.45;55.28;99769.97;4990657;28;20048;-74
2023/11/30 03:29:41;;;;;;;13.70;9.73;;;;;;;1.45;55.28;99769.97;4974384;28;20132;-73
2023/11/30 03:32:10;;;;;;;13.80;8.82;;;;;;;1.48;55.29;99763.53;4978429;28;20534;-74
2023/11/30 03:34:39;;;;;;;15.90;10.32;;;;;;;1.45;55.29;99767.28;4990244;28;20541;-74
2023/11/30 03:37:06;;;;;;;14.07;8.77;;;;;;;1.46;55.27;99760.06;4990589;28;20442;-73
2023/11/30 03:39:34;;;;;;;13.18;9.15;;;;;;;1.46;55.28;99760.06;4987326;28;20093;-74
2023/11/30 03:42:02;;;;;;;15.23;9.77;;;;;;;1.46;55.27;99760.06;4989988;28;20050;-74
2023/11/30 03:44:32;;;;;;;14.40;9.60;;;;;;;1.45;55.23;99751.09;4972824;28;20421;-74
2023/11/30 03:47:00;;;;;;;15.15;10.02;;;;;;;1.47;55.57;99770.75;4982426;28;20046;-74
2023/11/30 03:49:29;;;;;;;16.33;10.02;;;;;;;1.48;55.31;99768.91;4969379;28;20035;-74
2023/11/30 03:51:57;;;;;;;15.70;9.77;;;;;;;1.48;55.27;99774.31;4986936;28;20459;-73
2023/11/30 03:54:25;;;;;;;14.85;9.65;;;;;;;1.48;55.26;99761.69;4971806;28;20065;-74
2023/11/30 03:56:53;;;;;;;14.57;9.55;;;;;;;1.47;55.43;99773.44;4970551;28;20062;-74
2023/11/30 03:59:21;;;;;;;15.73;10.07;;;;;;;1.47;55.23;99773.44;4976802;28;20084;-74
2023/11/30 04:01:49;;;;;;;16.38;9.60;;;;;;;1.48;55.29;99763.53;4980616;28;20128;-74
2023/11/30 04:04:17;;;;;;;15.55;10.13;;;;;;;1.48;55.37;99761.69;4976832;28;20047;-74
2023/11/30 04:06:47;;;;;;;17.13;10.35;;;;;;;1.49;55.40;99763.41;4963767;28;20050;-74
2023/11/30 04:09:15;;;;;;;14.55;9.93;;;;;;;1.48;55.18;99752.72;4985240;28;20073;-73
2023/11/30 04:11:46;;;;;;;16.05;9.95;;;;;;;1.48;55.25;99752.72;4973017;28;20057;-73
2023/11/30 04:14:14;;;;;;;15.02;8.88;;;;;;;1.48;55.22;99750.03;4988762;28;20066;-74
2023/11/30 04:16:42;;;;;;;15.63;10.02;;;;;;;1.48;55.31;99750.03;4970276;28;20050;-73
2023/11/30 04:19:10;;;;;;;15.20;10.07;;;;;;;1.47;55.32;99751.88;4982795;28;20458;-73
2023/11/30 04:21:39;;;;;;;17.02;10.30;;;;;;;1.48;55.33;99759.00;4978137;28;20133;-74
2023/11/30 04:24:08;;;;;;;16.98;10.20;;;;;;;1.51;55.55;99751.66;4986957;28;20034;-72
2023/11/30 04:26:37;;;;;;;14.70;9.82;;;;;;;1.51;55.50;99751.66;4954679;28;20054;-73
2023/11/30 04:29:05;;;;;;;14.98;9.40;;;;;;;1.51;55.40;99754.38;4969818;28;20415;-73
2023/11/30 04:31:33;;;;;;;17.50;10.85;;;;;;;1.52;55.55;99745.28;4989238;28;20043;-73
2023/11/30 04:34:01;;;;;;;17.02;10.73;;;;;;;1.52;55.47;99742.59;4969330;28;20113;-73
2023/11/30 04:36:29;;;;;;;16.77;10.48;;;;;;;1.53;55.58;99742.50;4976640;28;20408;-74
2023/11/30 04:38:58;;;;;;;17.42;10.45;;;;;;;1.52;55.38;99743.44;4971965;28;20133;-74
2023/11/30 04:41:28;;;;;;;17.88;10.77;;;;;;;1.55;55.44;99745.09;4984377;28;20092;-74
2023/11/30 04:43:57;;;;;;;15.93;9.60;;;;;;;1.55;55.44;99739.69;4966123;28;20070;-74
2023/11/30 04:46:25;;;;;;;15.55;9.48;;;;;;;1.55;55.44;99732.47;4971465;28;20050;-74
2023/11/30 04:48:53;;;;;;;17.38;10.43;;;;;;;1.56;55.73;99730.63;4981535;28;20513;-74
2023/11/30 04:51:21;;;;;;;17.17;10.02;;;;;;;1.57;55.42;99737.75;4982354;28;20496;-74
2023/11/30 04:53:50;;;;;;;15.88;10.05;;;;;;;1.58;55.55;99732.28;4965630;28;20045;-74
2023/11/30 04:56:18;;;;;;;17.33;10.10;;;;;;;1.58;55.30;99726.88;4984908;28;20143;-75
2023/11/30 04:58:47;;;;;;;15.15;9.77;;;;;;;1.59;55.47;99731.28;4986421;28;20390;-74
2023/11/30 05:01:15;;;;;;;16.35;10.25;;;;;;;1.57;55.48;99730.53;4977695;28;20411;-74
2023/11/30 05:03:43;;;;;;;16.17;10.73;;;;;;;1.57;55.45;99735.06;4968819;28;20073;-74
2023/11/30 05:06:11;;;;;;;15.95;9.48;;;;;;;1.56;55.50;99728.81;4968161;28;20038;-74
2023/11/30 05:08:39;;;;;;;18.92;10.68;;;;;;;1.55;55.36;99727.06;4984452;28;20050;-74
2023/11/30 05:11:07;;;;;;;17.65;10.27;;;;;;;1.57;55.39;99729.69;4990193;28;20156;-73
2023/11/30 05:13:35;;;;;;;15.15;9.20;;;;;;;1.56;55.47;99720.72;4984340;28;20440;-74
2023/11/30 05:16:05;;;;;;;14.77;10.10;;;;;;;1.57;55.64;99735.06;4961240;28;20046;-74
2023/11/30 05:18:32;;;;;;;14.45;9.23;;;;;;;1.57;55.52;99733.25;4986883;28;20325;-74
2023/11/30 05:21:00;;;;;;;14.75;9.90;;;;;;;1.58;55.62;99736.81;4972221;28;20042;-74
2023/11/30 05:23:28;;;;;;;14.93;9.23;;;;;;;1.57;55.53;99730.53;4994944;28;20045;-74
2023/11/30 05:25:57;;;;;;;14.93;9.95;;;;;;;1.60;55.54;99733.00;4985319;28;20046;-74
2023/11/30 05:28:25;;;;;;;17.00;9.65;;;;;;;1.60;55.67;99727.63;4989793;28;20049;-74
2023/11/30 05:30:53;;;;;;;14.27;9.23;;;;;;;1.60;55.67;99722.22;4988139;28;20134;-74
2023/11/30 05:33:24;;;;;;;15.38;9.65;;;;;;;1.62;55.53;99732.91;4984971;28;20058;-75
2023/11/30 05:35:52;;;;;;;15.82;9.57;;;;;;;1.62;55.56;99728.38;4970467;28;20283;-74
2023/11/30 05:38:20;;;;;;;15.85;9.75;;;;;;;1.61;55.53;99721.25;4974584;28;20041;-74
2023/11/30 05:40:48;;;;;;;16.70;9.95;;;;;;;1.62;55.53;99716.72;4992753;28;20042;-74
2023/11/30 05:43:16;;;;;;;15.27;9.70;;;;;;;1.62;55.50;99712.19;4988191;28;20145;-74
2023/11/30 05:45:44;;;;;;;16.58;9.70;;;;;;;1.62;55.57;99709.50;4985176;28;20050;-73
2023/11/30 05:48:12;;;;;;;16.38;9.75;;;;;;;1.63;55.38;99713.06;4992173;28;20066;-73
2023/11/30 05:50:42;;;;;;;17.65;10.43;;;;;;;1.62;55.37;99712.19;4991860;28;20058;-75
2023/11/30 05:53:11;;;;;;;15.70;10.55;;;;;;;1.62;55.56;99714.03;4985286;28;20117;-75
2023/11/30 05:55:39;;;;;;;16.30;9.98;;;;;;;1.61;55.31;99712.31;4998194;28;20721;-74
2023/11/30 05:58:07;;;;;;;17.77;10.27;;;;;;;1.59;55.23;99706.16;4963888;28;20347;-74
2023/11/30 06:00:35;;;;;;;15.50;10.07;;;;;;;1.58;55.37;99701.75;4971357;28;20100;-74
2023/11/30 06:03:03;;;;;;;17.85;10.07;;;;;;;1.57;55.34;99710.81;4971411;28;20042;-75
2023/11/30 06:05:35;;;;;;;16.33;9.70;;;;;;;1.55;55.21;99712.72;4983863;28;20050;-75
2023/11/30 06:08:04;;;;;;;17.30;9.77;;;;;;;1.58;55.45;99708.00;4986020;28;20050;-74
2023/11/30 06:10:32;;;;;;;14.88;9.77;;;;;;;1.57;55.50;99708.09;4989239;28;20042;-75
2023/11/30 06:13:00;;;;;;;15.02;9.63;;;;;;;1.57;55.37;99714.38;4981353;28;20046;-75
2023/11/30 06:15:29;;;;;;;15.45;8.95;;;;;;;1.57;55.40;99708.97;4993757;28;20137;-74
2023/11/30 06:17:57;;;;;;;16.02;9.85;;;;;;;1.59;55.55;99725.06;4987221;28;20042;-74
2023/11/30 06:20:25;;;;;;;15.18;9.18;;;;;;;1.59;55.51;99717.78;4974685;28;20046;-74
2023/11/30 06:22:53;;;;;;;16.30;9.85;;;;;;;1.60;55.52;99718.66;4973647;28;20046;-75
2023/11/30 06:25:22;;;;;;;17.20;9.82;;;;;;;1.62;55.64;99714.03;4982382;28;20067;-75
2023/11/30 06:27:50;;;;;;;15.10;9.90;;;;;;;1.62;55.53;99716.72;4990710;28;20347;-75
2023/11/30 06:30:18;;;;;;;16.30;10.07;;;;;;;1.62;55.60;99717.59;4984267;28;20455;-74
2023/11/30 06:32:46;;;;;;;16.83;10.35;;;;;;;1.62;55.36;99720.28;4988976;28;20042;-73
2023/11/30 06:35:14;;;;;;;17.35;10.48;;;;;;;1.62;55.12;99725.69;4969534;28;20046;-73
2023/11/30 06:37:42;;;;;;;16.85;10.10;;;;;;;1.62;55.43;99724.81;4982093;28;20179;-74
2023/11/30 06:40:11;;;;;;;16.90;10.43;;;;;;;1.62;55.34;99725.69;4966341;28;20496;-74
2023/11/30 06:42:40;;;;;;;15.45;10.15;;;;;;;1.62;55.30;99722.13;4972287;28;20049;-72
2023/11/30 06:45:09;;;;;;;14.57;9.30;;;;;;;1.61;55.28;99721.25;4991074;28;20054;-73
2023/11/30 06:47:37;;;;;;;16.77;9.32;;;;;;;1.60;55.43;99730.31;4991818;28;20053;-72
2023/11/30 06:50:06;;;;;;;15.90;9.15;;;;;;;1.62;55.41;99736.47;4989205;28;20074;-74
2023/11/30 06:52:34;;;;;;;15.82;9.77;;;;;;;1.62;55.60;99741.00;4989889;28;20066;-75
2023/11/30 06:55:03;;;;;;;17.27;10.30;;;;;;;1.62;55.51;99741.88;4990031;28;20343;-75
2023/11/30 06:57:31;;;;;;;16.33;10.00;;;;;;;1.62;55.50;99741.00;4991088;28;20054;-75
2023/11/30 07:00:00;;;;;;;15.40;9.88;;;;;;;1.64;55.49;99744.47;4990601;28;20050;-75
2023/11/30 07:02:28;;;;;;;17.75;10.27;;;;;;;1.62;55.41;99739.16;4991292;28;20042;-75
2023/11/30 07:04:56;;;;;;;14.15;9.30;;;;;;;1.62;55.44;99743.69;4991455;28;20051;-75
2023/11/30 07:07:24;;;;;;;14.88;9.38;;;;;;;1.63;55.42;99740.03;4974476;28;20137;-75
2023/11/30 07:10:03;;;;;;;15.65;9.50;;;;;;;1.63;55.59;99735.50;4978995;28;20057;-74
2023/11/30 07:12:31;;;;;;;15.90;10.15;;;;;;;1.63;55.49;99727.41;4967895;28;20130;-60
2023/11/30 07:15:01;;;;;;;15.85;9.38;;;;;;;1.65;55.71;99732.72;4977782;28;20043;-74
2023/11/30 07:17:29;;;;;;;14.02;9.40;;;;;;;1.64;55.62;99729.16;4983128;28;20056;-73
2023/11/30 07:19:57;;;;;;;16.42;9.70;;;;;;;1.65;55.73;99728.19;4973347;28;20046;-74
2023/11/30 07:22:25;;;;;;;16.00;9.93;;;;;;;1.64;55.63;99718.34;4990503;28;20138;-75
2023/11/30 07:24:53;;;;;;;14.70;9.50;;;;;;;1.66;55.65;99716.44;4972528;28;20077;-74
2023/11/30 07:27:21;;;;;;;16.27;9.65;;;;;;;1.66;55.54;99716.44;4986320;28;20066;-74
2023/11/30 07:29:49;;;;;;;15.75;9.30;;;;;;;1.66;55.53;99711.03;5060626;23;20050;-74
2023/11/30 07:32:19;;;;;;;15.43;8.52;;;;;;;1.67;55.46;99707.34;4950289;28;20047;-75
2023/11/30 07:34:47;;;;;;;14.38;8.88;;;;;;;1.67;55.58;99711.91;4951832;28;20671;-74
2023/11/30 07:37:16;;;;;;;14.70;9.32;;;;;;;1.68;55.39;99711.75;4955787;28;20106;-74
2023/11/30 07:39:44;;;;;;;13.48;8.48;;;;;;;1.67;55.48;99710.03;4956676;28;20325;-74
2023/11/30 07:42:16;;;;;;;15.05;8.57;;;;;;;1.68;55.52;99710.91;4970478;28;20055;-73
2023/11/30 07:44:59;;;;;;;14.35;8.45;;;;;;;1.67;55.48;99710.03;4969619;28;20055;-73
2023/11/30 07:47:28;;;;;;;14.45;8.57;;;;;;;1.69;55.57;99708.09;4970422;28;20047;-75
2023/11/30 07:49:56;;;;;;;14.07;8.07;;;;;;;1.67;55.57;99704.66;4970948;28;20574;-73
2023/11/30 07:52:24;;;;;;;13.88;8.88;;;;;;;1.69;55.61;99710.81;4953479;28;20050;-74
2023/11/30 07:54:52;;;;;;;14.40;8.38;;;;;;;1.70;55.73;99704.44;4970432;28;20393;-75
2023/11/30 07:57:20;;;;;;;15.88;9.70;;;;;;;1.72;55.72;99715.13;4970560;28;20137;-74
2023/11/30 07:59:48;;;;;;;14.65;8.93;;;;;;;1.72;55.88;99717.84;4968720;28;20101;-74
2023/11/30 08:02:17;;;;;;;14.55;8.77;;;;;;;1.73;55.79;99716.88;4953159;28;20352;-74
2023/11/30 08:04:46;;;;;;;13.88;8.55;;;;;;;1.74;55.62;99718.59;4970442;28;20397;-74
2023/11/30 08:07:14;;;;;;;16.20;9.38;;;;;;;1.73;55.62;99717.72;4970480;28;20066;-74
2023/11/30 08:09:42;;;;;;;15.18;8.95;;;;;;;1.74;55.40;99721.28;4970229;28;20047;-74
2023/11/30 08:12:10;;;;;;;15.18;8.88;;;;;;;1.73;55.58;99717.72;4970148;28;20039;-75
2023/11/30 08:14:38;;;;;;;14.55;9.05;;;;;;;1.73;55.68;99717.72;4969536;28;20566;-74
2023/11/30 08:17:06;;;;;;;17.95;9.00;;;;;;;1.75;55.73;99725.72;4953187;28;20149;-73
2023/11/30 08:19:34;;;;;;;13.75;8.57;;;;;;;1.75;55.46;99723.84;4953257;28;20138;-75
2023/11/30 08:22:03;;;;;;;13.13;8.02;;;;;;;1.77;55.58;99727.31;4970484;28;20235;-74
2023/11/30 08:24:31;;;;;;;13.70;8.25;;;;;;;1.78;55.52;99725.50;4970268;28;20050;-74
2023/11/30 08:26:59;;;;;;;15.55;9.25;;;;;;;1.78;55.76;99730.88;4969538;28;20629;-74
2023/11/30 08:29:27;;;;;;;16.17;9.27;;;;;;;1.79;55.85;99727.22;4969911;28;20447;-74
2023/11/30 08:31:55;;;;;;;14.15;8.80;;;;;;;1.80;55.37;99720.84;4959139;28;20094;-75
2023/11/30 08:34:23;;;;;;;13.63;8.35;;;;;;;1.81;55.74;99725.28;4952260;28;20113;-75
2023/11/30 08:36:51;;;;;;;15.55;8.52;;;;;;;1.82;55.67;99725.19;4970001;28;20043;-74
2023/11/30 08:39:23;;;;;;;13.70;8.45;;;;;;;1.85;55.86;99732.19;4951997;28;20054;-75
2023/11/30 08:41:53;;;;;;;13.63;8.10;;;;;;;1.84;55.80;99730.44;4969797;28;20424;-75
2023/11/30 08:44:22;;;;;;;15.05;8.02;;;;;;;1.86;55.74;99729.38;4968562;28;20058;-75
2023/11/30 08:46:50;;;;;;;12.93;8.43;;;;;;;1.88;55.89;99726.59;4956866;28;20284;-74
2023/11/30 08:49:18;;;;;;;13.98;8.35;;;;;;;1.90;55.83;99727.34;4950258;28;20059;-74
2023/11/30 08:51:46;;;;;;;14.18;8.82;;;;;;;1.91;55.65;99729.09;4952502;28;20055;-75
2023/11/30 08:54:14;;;;;;;13.20;8.15;;;;;;;1.92;55.78;99730.78;4958064;28;20520;-76
2023/11/30 08:56:44;;;;;;;15.13;8.80;;;;;;;1.94;55.69;99730.69;4952682;28;20419;-75
2023/11/30 08:59:12;;;;;;;13.73;8.27;;;;;;;1.95;55.85;99732.41;4957187;28;20047;-75
2023/11/30 09:01:40;;;;;;;13.02;8.20;;;;;;;1.95;55.90;99724.31;4951327;28;20508;-75
2023/11/30 09:04:08;;;;;;;13.57;8.35;;;;;;;1.96;55.75;99728.75;4953975;29;20344;-75
2023/11/30 09:06:37;;;;;;;13.95;8.65;;;;;;;1.96;55.73;99723.34;4947940;28;20134;-76
2023/11/30 09:09:05;;;;;;;14.60;8.38;;;;;;;1.96;55.59;99716.13;4964048;28;20046;-75
2023/11/30 09:11:34;;;;;;;15.95;8.63;;;;;;;1.97;55.73;99722.38;4964970;28;20051;-76
2023/11/30 09:14:03;;;;;;;14.18;8.38;;;;;;;1.99;55.80;99723.16;4973812;28;20504;-75
2023/11/30 09:16:31;;;;;;;13.45;8.20;;;;;;;1.98;55.79;99726.81;4973714;28;20109;-76
2023/11/30 09:18:59;;;;;;;15.27;8.80;;;;;;;1.99;55.82;99720.44;4969695;28;20031;-76
2023/11/30 09:21:27;;;;;;;13.02;8.18;;;;;;;2.00;55.94;99727.56;4957463;28;20042;-74
2023/11/30 09:23:55;;;;;;;13.10;7.97;;;;;;;2.01;55.97;99722.03;4969755;28;20090;-74
2023/11/30 09:26:24;;;;;;;14.63;8.65;;;;;;;2.02;56.06;99715.69;4958389;28;20054;-76
2023/11/30 09:28:51;;;;;;;14.35;7.97;;;;;;;2.04;56.04;99716.44;4953097;28;20132;-76
2023/11/30 09:31:21;;;;;;;14.18;8.45;;;;;;;2.07;56.04;99716.25;4963907;28;20043;-75
2023/11/30 09:33:49;;;;;;;14.07;8.68;;;;;;;2.08;56.20;99709.00;4970191;28;20137;-76
2023/11/30 09:36:17;;;;;;;13.52;7.65;;;;;;;2.11;56.18;99711.47;4960196;28;20074;-76
2023/11/30 09:38:45;;;;;;;14.20;7.60;;;;;;;2.13;56.09;99720.34;4946177;28;20051;-76
2023/11/30 09:41:16;;;;;;;13.40;7.80;;;;;;;2.16;56.06;99718.28;4949530;28;20511;-76
2023/11/30 09:43:45;;;;;;;12.43;7.70;;;;;;;2.18;56.09;99710.06;4959499;28;20055;-75
2023/11/30 09:46:13;;;;;;;13.43;7.53;;;;;;;2.19;55.91;99706.38;4958234;28;20055;-75
2023/11/30 09:48:43;;;;;;;13.10;8.32;;;;;;;2.21;55.83;99708.03;4968343;28;20113;-75
2023/11/30 09:51:11;;;;;;;13.98;8.10;;;;;;;2.23;55.90;99707.91;4965560;28;20039;-75
2023/11/30 09:53:40;;;;;;;12.80;7.80;;;;;;;2.23;55.84;99713.31;4962708;28;20082;-75
2023/11/30 09:56:09;;;;;;;13.43;8.38;;;;;;;2.26;55.93;99708.53;4963989;28;20125;-75
2023/11/30 09:58:37;;;;;;;12.35;7.80;;;;;;;2.27;56.03;99704.00;4944101;28;20121;-74
2023/11/30 10:01:08;;;;;;;13.60;8.27;;;;;;;2.30;56.09;99708.34;4964779;28;20527;-74
2023/11/30 10:03:37;;;;;;;13.43;7.97;;;;;;;2.32;56.40;99709.97;4972036;28;20515;-75
2023/11/30 10:06:08;;;;;;;11.88;7.60;;;;;;;2.37;56.47;99712.31;4968705;28;20043;-75
2023/11/30 10:08:36;;;;;;;13.13;7.65;;;;;;;2.40;56.55;99709.41;4959144;28;20134;-75
2023/11/30 10:11:04;;;;;;;12.45;7.57;;;;;;;2.44;56.51;99705.50;4959220;28;20040;-74
2023/11/30 10:13:32;;;;;;;11.65;6.72;;;;;;;2.49;56.35;99716.84;4960073;28;20047;-74
2023/11/30 10:16:00;;;;;;;11.10;7.70;;;;;;;2.53;56.55;99713.81;4969204;28;20089;-76
2023/11/30 10:18:30;;;;;;;10.68;6.45;;;;;;;2.57;56.30;99700.94;4965019;28;20065;-75
2023/11/30 10:20:58;;;;;;;10.70;6.68;;;;;;;2.61;56.05;99707.84;4967121;28;20117;-75
2023/11/30 10:23:27;;;;;;;10.90;6.25;;;;;;;2.64;55.93;99713.88;4960179;28;20062;-76
2023/11/30 10:25:56;;;;;;;10.75;6.68;;;;;;;2.66;55.71;99700.25;4963030;28;20066;-78
2023/11/30 10:28:24;;;;;;;10.60;6.10;;;;;;;2.68;55.69;99706.41;4963506;28;20572;-78
2023/11/30 10:30:55;;;;;;;11.90;6.25;;;;;;;2.71;55.80;99705.31;4963936;28;20050;-76
2023/11/30 10:33:24;;;;;;;10.65;6.07;;;;;;;2.72;55.77;99705.22;4950434;28;20055;-76
2023/11/30 10:35:53;;;;;;;10.52;5.70;;;;;;;2.74;55.68;99694.31;4966358;28;20051;-78
2023/11/30 10:38:27;;;;;;;11.10;6.40;;;;;;;2.78;55.60;99701.19;4955939;28;20142;-76
2023/11/30 10:41:02;;;;;;;9.43;5.88;;;;;;;2.79;55.64;99702.94;4950236;28;20048;-77
2023/11/30 10:43:33;;;;;;;10.77;6.30;;;;;;;2.80;55.75;99701.94;4961819;28;20661;-76
2023/11/30 10:46:05;;;;;;;11.52;6.07;;;;;;;2.83;55.46;99701.72;4969077;28;20082;-76
2023/11/30 10:48:34;;;;;;;11.32;6.53;;;;;;;2.82;55.84;99700.00;4960997;28;20047;-77
2023/11/30 10:51:03;;;;;;;11.10;6.00;;;;;;;2.85;55.71;99697.94;4948250;28;20053;-77
2023/11/30 10:53:41;;;;;;;9.45;6.68;;;;;;;2.88;55.24;99692.31;4966450;28;20035;-75
2023/11/30 10:56:13;;;;;;;9.68;6.10;;;;;;;2.90;55.75;99694.91;4959105;28;20211;-76
2023/11/30 10:58:43;;;;;;;10.23;6.22;;;;;;;2.91;55.64;99694.75;4961259;28;20055;-74
2023/11/30 11:01:13;;;;;;;9.95;5.85;;;;;;;2.94;55.81;99691.84;4953706;28;20043;-73
2023/11/30 11:03:45;;;;;;;11.07;5.93;;;;;;;2.99;55.80;99688.78;4948321;28;20098;-76
2023/11/30 11:06:15;;;;;;;10.38;6.25;;;;;;;2.99;56.13;99691.47;4971586;28;20046;-75
2023/11/30 11:08:59;;;;;;;10.20;5.65;;;;;;;3.06;54.74;99695.47;4947937;28;20047;-75
2023/11/30 11:11:30;;;;;;;10.73;6.05;;;;;;;3.10;55.17;99691.56;4965183;28;20103;-75
2023/11/30 11:13:58;;;;;;;9.10;5.45;;;;;;;3.14;55.83;99695.75;4975465;28;20042;-75
2023/11/30 11:16:40;;;;;;;9.52;5.63;;;;;;;3.21;55.09;99697.03;4969186;28;20038;-75
2023/11/30 11:19:09;;;;;;;9.57;5.80;;;;;;;3.22;56.46;99693.34;4960084;28;20090;-75
2023/11/30 11:21:39;;;;;;;9.00;5.40;;;;;;;3.30;55.92;99695.47;4968375;28;20050;-75
2023/11/30 11:24:08;;;;;;;8.70;5.43;;;;;;;3.36;55.84;99686.91;4970193;28;20538;-75
2023/11/30 11:26:45;;;;;;;10.57;5.90;;;;;;;3.43;54.72;99698.97;4953678;28;20145;-76
2023/11/30 11:29:14;;;;;;;8.90;5.20;;;;;;;3.43;55.44;99690.88;4965440;28;20078;-76
2023/11/30 11:31:54;;;;;;;8.45;5.18;;;;;;;3.46;55.47;99693.34;4955507;28;20066;-76
2023/11/30 11:34:21;;;;;;;9.27;5.35;;;;;;;3.50;54.95;99696.66;4963060;28;20572;-76
2023/11/30 11:36:49;;;;;;;9.52;5.60;;;;;;;3.50;54.81;99692.13;4950840;28;20047;-76
2023/11/30 11:39:17;;;;;;;9.13;5.38;;;;;;;3.51;54.57;99691.13;4958509;28;20074;-76